Time;durP1;ratioP1;P1;durP2;ratioP2;P2;SDS_P1;SDS_P2;PMS_P1;PMS_P2;Temp;Humidity;BMP_temperature;BMP_pressure;BME280_temperature;BME280_humidity;BME280_pressure;Samples;Min_cycle;Max_cycle;Signal;HPM_P1;HPM_P2
2022/10/19 00:01:59;;;;;;;15.60;7.90;;;;;9.90;98031.60;;;;108906;1269;41140;-62
2022/10/19 00:04:31;;;;;;;13.50;6.90;;;;;9.90;98032.40;;;;108889;1268;41655;-63
2022/10/19 00:07:01;;;;;;;12.90;6.80;;;;;9.80;98037.20;;;;108999;1271;41139;-62
2022/10/19 00:09:31;;;;;;;13.80;7.20;;;;;9.80;98031.80;;;;108910;1270;41195;-62
2022/10/19 00:12:01;;;;;;;13.00;6.40;;;;;9.80;98037.00;;;;108936;1271;42155;-62
2022/10/19 00:14:31;;;;;;;12.70;6.70;;;;;9.70;98034.60;;;;108736;1269;41236;-63
2022/10/19 00:17:04;;;;;;;13.30;6.00;;;;;9.70;98026.40;;;;108934;1258;41656;-62
2022/10/19 00:19:34;;;;;;;16.20;7.60;;;;;9.66;98024.00;;;;108920;1271;41372;-63
2022/10/19 00:22:03;;;;;;;18.20;9.60;;;;;9.60;98023.20;;;;108922;1270;41412;-62
2022/10/19 00:24:34;;;;;;;;;;;;;9.50;98019.00;;;;108942;1270;41557;-62
2022/10/19 00:27:05;;;;;;;20.90;10.00;;;;;9.40;98019.20;;;;108960;1265;41347;-62
2022/10/19 00:29:37;;;;;;;19.30;9.40;;;;;9.30;98022.60;;;;108840;1266;41171;-62
2022/10/19 00:32:06;;;;;;;;;;;;;9.30;98016.80;;;;108901;1271;42589;-62
2022/10/19 00:34:37;;;;;;;15.80;7.10;;;;;9.22;98012.00;;;;108868;1270;41149;-63
2022/10/19 00:37:08;;;;;;;21.90;9.60;;;;;9.20;98014.20;;;;108695;1271;41146;-63
2022/10/19 00:39:39;;;;;;;13.90;7.50;;;;;9.20;98011.80;;;;108652;1266;42183;-63
2022/10/19 00:42:12;;;;;;;16.70;7.70;;;;;9.20;98018.80;;;;108917;1270;41141;-63
2022/10/19 00:44:42;;;;;;;18.90;7.20;;;;;9.20;98021.60;;;;109038;1258;41236;-64
2022/10/19 00:47:13;;;;;;;14.80;7.50;;;;;9.10;98017.40;;;;108944;1271;41232;-64
2022/10/19 00:49:44;;;;;;;13.80;6.90;;;;;9.10;98014.40;;;;108648;1271;41142;-63
2022/10/19 00:52:19;;;;;;;15.90;7.80;;;;;9.10;98009.40;;;;108929;1271;41164;-63
2022/10/19 00:54:50;;;;;;;16.50;8.20;;;;;9.10;98011.80;;;;108603;1271;41246;-63
2022/10/19 00:57:20;;;;;;;15.00;8.30;;;;;9.00;98005.40;;;;108764;1271;41146;-64
2022/10/19 00:59:51;;;;;;;16.30;8.30;;;;;8.90;98006.00;;;;108968;1266;41905;-63
2022/10/19 01:02:22;;;;;;;30.30;9.10;;;;;8.88;97998.80;;;;108912;1270;41424;-63
2022/10/19 01:04:54;;;;;;;17.30;7.70;;;;;8.80;97998.40;;;;108867;1265;41147;-63
2022/10/19 01:07:25;;;;;;;16.50;8.10;;;;;8.70;97994.40;;;;108993;1271;41217;-63
2022/10/19 01:09:58;;;;;;;28.30;7.80;;;;;8.70;97993.00;;;;109073;1267;41167;-62
2022/10/19 01:12:45;;;;;;;15.70;7.60;;;;;8.70;97994.80;;;;108689;1266;42235;-63
2022/10/19 01:15:40;;;;;;;14.70;7.40;;;;;8.60;97990.20;;;;108967;1262;41965;-63
2022/10/19 01:18:19;;;;;;;14.70;7.40;;;;;8.60;97989.00;;;;108902;1271;41643;-62
2022/10/19 01:21:14;;;;;;;13.70;7.10;;;;;8.60;97987.00;;;;108761;1270;41141;-62
2022/10/19 01:24:12;;;;;;;15.70;7.00;;;;;8.60;97982.00;;;;108681;1269;41238;-62
2022/10/19 01:26:54;;;;;;;20.80;7.10;;;;;8.60;97980.00;;;;108634;1270;41784;-64
2022/10/19 01:29:34;;;;;;;18.30;9.10;;;;;8.60;97976.20;;;;108836;1269;41145;-64
2022/10/19 01:32:10;;;;;;;23.00;10.30;;;;;8.50;97973.60;;;;108783;1270;42824;-63
2022/10/19 01:35:00;;;;;;;19.60;9.40;;;;;8.40;97972.80;;;;108712;1260;41147;-62
2022/10/19 01:37:40;;;;;;;14.60;7.90;;;;;8.30;97979.40;;;;108552;1269;41573;-63
2022/10/19 01:40:26;;;;;;;21.10;8.70;;;;;8.30;97971.20;;;;108715;1256;41175;-63
2022/10/19 01:43:22;;;;;;;31.30;9.00;;;;;8.30;97968.00;;;;108645;1266;41334;-62
2022/10/19 01:45:54;;;;;;;34.20;7.20;;;;;8.20;97969.40;;;;108830;1270;41900;-63
2022/10/19 01:48:31;;;;;;;14.50;7.30;;;;;8.10;97964.40;;;;108756;1270;41138;-63
2022/10/19 01:51:09;;;;;;;13.70;6.90;;;;;8.10;97970.80;;;;108804;1266;41459;-62
2022/10/19 01:53:53;;;;;;;13.60;7.50;;;;;8.10;97971.00;;;;108779;1270;41160;-62
2022/10/19 01:56:27;;;;;;;21.80;8.60;;;;;8.02;97965.80;;;;108941;1266;41192;-63
2022/10/19 01:59:00;;;;;;;13.90;6.80;;;;;8.00;97961.20;;;;108957;1271;41470;-63
2022/10/19 02:01:33;;;;;;;13.20;6.00;;;;;8.00;97960.00;;;;109027;1256;41217;-63
2022/10/19 02:04:03;;;;;;;11.90;6.50;;;;;7.98;97961.40;;;;108895;1265;41135;-64
2022/10/19 02:06:35;;;;;;;10.90;5.90;;;;;7.92;97961.60;;;;108873;1270;41162;-63
2022/10/19 02:09:08;;;;;;;12.40;5.80;;;;;7.96;97959.20;;;;108914;1267;41395;-63
2022/10/19 02:11:37;;;;;;;;;;;;;8.00;97957.60;;;;108697;1268;41197;-64
2022/10/19 02:14:11;;;;;;;11.10;5.80;;;;;7.92;97959.20;;;;108632;1271;41527;-63
2022/10/19 02:16:48;;;;;;;11.10;5.80;;;;;7.98;97956.80;;;;108889;1270;41202;-64
2022/10/19 02:19:20;;;;;;;12.50;6.70;;;;;7.92;97952.40;;;;108935;1262;42160;-64
2022/10/19 02:21:50;;;;;;;16.10;7.10;;;;;7.90;97947.20;;;;108749;1271;41170;-64
2022/10/19 02:24:19;;;;;;;17.80;8.20;;;;;7.90;97947.80;;;;108864;1271;42615;-62
2022/10/19 02:26:51;;;;;;;17.50;8.00;;;;;7.80;97953.20;;;;108936;1271;42093;-63
2022/10/19 02:29:23;;;;;;;13.50;6.90;;;;;7.80;97954.60;;;;108829;1252;41154;-63
2022/10/19 02:31:52;;;;;;;18.30;8.10;;;;;7.70;97958.20;;;;108825;1256;41338;-63
2022/10/19 02:34:22;;;;;;;15.80;6.90;;;;;7.70;97953.20;;;;108802;1271;41691;-63
2022/10/19 02:36:53;;;;;;;11.50;6.50;;;;;7.70;97950.60;;;;108953;1263;41148;-63
2022/10/19 02:39:25;;;;;;;10.70;5.60;;;;;7.60;97952.80;;;;108927;1271;41231;-63
2022/10/19 02:42:10;;;;;;;12.10;5.90;;;;;7.68;97945.80;;;;108900;1258;41157;-63
2022/10/19 02:44:57;;;;;;;10.50;5.60;;;;;7.68;97950.20;;;;108967;1265;41696;-63
2022/10/19 02:47:41;;;;;;;10.70;5.90;;;;;7.60;97951.60;;;;108865;1266;42565;-62
2022/10/19 02:50:13;;;;;;;10.80;5.90;;;;;7.66;97951.20;;;;108920;1271;41239;-63
2022/10/19 02:52:43;;;;;;;11.60;5.80;;;;;7.66;97954.20;;;;108896;1270;42555;-63
2022/10/19 02:55:12;;;;;;;13.10;6.20;;;;;7.62;97952.40;;;;108808;1270;41249;-63
2022/10/19 02:57:43;;;;;;;16.70;7.60;;;;;7.70;97949.20;;;;108903;1269;42391;-63
2022/10/19 03:00:13;;;;;;;12.90;6.40;;;;;7.60;97949.00;;;;108895;1271;41152;-62
2022/10/19 03:02:43;;;;;;;22.60;6.60;;;;;7.60;97941.80;;;;108893;1271;41226;-62
2022/10/19 03:05:13;;;;;;;12.30;6.30;;;;;7.58;97949.40;;;;108815;1257;42392;-63
2022/10/19 03:07:42;;;;;;;13.50;7.20;;;;;7.50;97955.20;;;;108922;1270;41134;-63
2022/10/19 03:10:11;;;;;;;13.70;7.30;;;;;7.50;97954.60;;;;108853;1271;41930;-63
2022/10/19 03:12:41;;;;;;;13.50;7.70;;;;;7.40;97953.40;;;;108782;1271;41992;-62
2022/10/19 03:15:15;;;;;;;13.00;7.50;;;;;7.40;97952.20;;;;108692;1270;41235;-63
2022/10/19 03:17:44;;;;;;;17.20;9.20;;;;;7.30;97951.20;;;;108768;1271;41620;-63
2022/10/19 03:20:15;;;;;;;14.80;8.10;;;;;7.20;97956.40;;;;108838;1270;41298;-63
2022/10/19 03:22:45;;;;;;;13.30;7.40;;;;;7.14;97949.60;;;;108732;1270;41164;-63
2022/10/19 03:25:15;;;;;;;14.10;7.70;;;;;7.10;97946.60;;;;108601;1271;41937;-63
2022/10/19 03:27:45;;;;;;;13.60;6.30;;;;;7.10;97944.40;;;;108863;1270;41159;-63
2022/10/19 03:30:15;;;;;;;10.80;5.70;;;;;7.10;97953.40;;;;108945;1269;41240;-63
2022/10/19 03:32:45;;;;;;;10.60;5.60;;;;;7.10;97955.40;;;;108752;1271;41170;-63
2022/10/19 03:35:15;;;;;;;11.70;6.00;;;;;7.10;97959.00;;;;108777;1263;41202;-63
2022/10/19 03:37:45;;;;;;;11.80;6.70;;;;;7.10;97964.80;;;;108791;1271;41250;-63
2022/10/19 03:40:14;;;;;;;15.20;8.20;;;;;7.12;97961.60;;;;108893;1271;41169;-62
2022/10/19 03:42:45;;;;;;;13.80;7.80;;;;;7.10;97955.20;;;;108867;1271;41316;-63
2022/10/19 03:45:14;;;;;;;11.10;6.40;;;;;7.10;97959.80;;;;108611;1271;41227;-63
2022/10/19 03:47:51;;;;;;;12.10;6.90;;;;;7.10;97957.80;;;;108687;1270;41155;-63
2022/10/19 03:50:21;;;;;;;12.00;6.60;;;;;7.10;97951.80;;;;108621;1266;41183;-63
2022/10/19 03:52:51;;;;;;;11.50;6.50;;;;;7.04;97949.20;;;;108858;1270;42019;-63
2022/10/19 03:55:20;;;;;;;12.00;6.20;;;;;7.00;97947.40;;;;108777;1270;41233;-62
2022/10/19 03:57:50;;;;;;;11.90;6.20;;;;;7.00;97944.40;;;;108905;1270;42440;-63
2022/10/19 04:00:20;;;;;;;10.90;5.60;;;;;7.04;97944.20;;;;108873;1271;41166;-63
2022/10/19 04:02:49;;;;;;;11.10;6.20;;;;;7.10;97946.80;;;;108782;1271;41544;-64
2022/10/19 04:05:18;;;;;;;11.40;6.00;;;;;7.08;97945.80;;;;108830;1270;41598;-64
2022/10/19 04:07:47;;;;;;;11.20;5.70;;;;;7.00;97947.00;;;;108804;1270;41323;-64
2022/10/19 04:10:16;;;;;;;13.30;6.20;;;;;7.00;97949.80;;;;108786;1270;41162;-63
2022/10/19 04:12:46;;;;;;;15.00;6.20;;;;;7.00;97949.20;;;;108777;1270;41662;-63
2022/10/19 04:15:19;;;;;;;11.00;5.50;;;;;7.00;97947.60;;;;108802;1271;41138;-63
2022/10/19 04:17:48;;;;;;;17.40;8.30;;;;;7.00;97938.20;;;;108786;1271;41416;-62
2022/10/19 04:20:17;;;;;;;15.90;8.30;;;;;7.00;97934.20;;;;108607;1271;41153;-61
2022/10/19 04:22:46;;;;;;;20.70;10.90;;;;;7.00;97932.00;;;;108610;1270;41556;-62
2022/10/19 04:25:15;;;;;;;18.50;10.20;;;;;7.00;97935.00;;;;108633;1270;41612;-61
2022/10/19 04:27:44;;;;;;;21.90;8.70;;;;;7.00;97942.00;;;;108553;1271;41241;-62
2022/10/19 04:30:13;;;;;;;14.90;6.70;;;;;7.00;97937.60;;;;108594;1271;41165;-63
2022/10/19 04:32:41;;;;;;;12.10;6.60;;;;;7.00;97929.00;;;;108613;1266;41628;-62
2022/10/19 04:35:10;;;;;;;11.90;6.60;;;;;7.00;97927.40;;;;108938;1262;41932;-63
2022/10/19 04:37:40;;;;;;;12.70;6.50;;;;;7.00;97923.40;;;;108970;1266;41159;-63
2022/10/19 04:40:10;;;;;;;13.30;5.90;;;;;7.06;97924.00;;;;109223;1262;41152;-62
2022/10/19 04:42:42;;;;;;;11.50;6.00;;;;;7.10;97921.20;;;;108894;1256;41580;-62
2022/10/19 04:45:11;;;;;;;13.40;7.30;;;;;7.10;97925.80;;;;108926;1270;41242;-62
2022/10/19 04:47:40;;;;;;;24.00;12.40;;;;;7.10;97931.20;;;;109029;1266;41297;-62
2022/10/19 04:50:09;;;;;;;30.50;12.90;;;;;7.10;97931.00;;;;108937;1265;41141;-64
2022/10/19 04:52:39;;;;;;;26.10;13.70;;;;;7.04;97922.40;;;;108852;1271;41146;-63
2022/10/19 04:55:09;;;;;;;34.80;11.90;;;;;7.00;97924.20;;;;108927;1270;41246;-63
2022/10/19 04:57:38;;;;;;;26.40;11.20;;;;;7.00;97925.80;;;;108905;1266;42405;-63
2022/10/19 05:00:08;;;;;;;30.40;13.00;;;;;6.94;97919.00;;;;108930;1261;41145;-64
2022/10/19 05:02:42;;;;;;;21.80;11.40;;;;;6.90;97924.40;;;;108981;1270;41683;-64
2022/10/19 05:05:13;;;;;;;23.90;9.80;;;;;6.90;97922.40;;;;108941;1270;41225;-64
2022/10/19 05:07:42;;;;;;;22.60;11.40;;;;;6.90;97914.60;;;;108990;1269;41165;-62
2022/10/19 05:10:11;;;;;;;18.00;9.40;;;;;6.90;97909.00;;;;108611;1271;41240;-62
2022/10/19 05:12:40;;;;;;;17.30;8.80;;;;;6.96;97911.80;;;;108680;1271;41549;-62
2022/10/19 05:15:09;;;;;;;16.20;8.50;;;;;7.00;97913.20;;;;108854;1266;41133;-61
2022/10/19 05:17:39;;;;;;;16.50;8.00;;;;;7.00;97908.20;;;;108889;1256;42416;-63
2022/10/19 05:20:10;;;;;;;17.40;9.10;;;;;7.06;97911.00;;;;108657;1270;41173;-63
2022/10/19 05:22:39;;;;;;;15.50;7.90;;;;;7.10;97906.40;;;;108905;1271;41147;-63
2022/10/19 05:25:08;;;;;;;12.60;7.20;;;;;7.10;97901.20;;;;108884;1270;41148;-62
2022/10/19 05:27:36;;;;;;;14.70;7.00;;;;;7.10;97895.60;;;;108942;1270;41181;-62
2022/10/19 05:30:07;;;;;;;16.90;6.90;;;;;7.16;97904.40;;;;108943;1271;41153;-62
2022/10/19 05:32:36;;;;;;;14.50;7.10;;;;;7.20;97903.60;;;;109240;1256;41177;-61
2022/10/19 05:35:05;;;;;;;14.60;7.80;;;;;7.30;97911.20;;;;109031;1271;41137;-62
2022/10/19 05:37:34;;;;;;;16.70;8.80;;;;;7.40;97911.20;;;;108923;1268;41163;-61
2022/10/19 05:40:03;;;;;;;21.50;10.80;;;;;7.50;97908.00;;;;108941;1259;41134;-61
2022/10/19 05:42:32;;;;;;;21.20;10.60;;;;;7.50;97904.00;;;;108942;1257;41923;-62
2022/10/19 05:45:01;;;;;;;24.90;10.80;;;;;7.60;97909.80;;;;109010;1271;41146;-62
2022/10/19 05:47:29;;;;;;;23.40;11.50;;;;;7.60;97906.60;;;;108869;1269;41626;-62
2022/10/19 05:49:58;;;;;;;21.60;11.00;;;;;7.60;97910.60;;;;108974;1262;41459;-61
2022/10/19 05:52:27;;;;;;;22.80;10.80;;;;;7.60;97910.60;;;;109032;1266;41222;-61
2022/10/19 05:54:57;;;;;;;22.20;10.90;;;;;7.60;97915.20;;;;109062;1256;41140;-61
2022/10/19 05:57:25;;;;;;;23.50;11.40;;;;;7.64;97921.60;;;;108896;1256;41166;-61
2022/10/19 05:59:57;;;;;;;24.50;11.60;;;;;7.70;97913.80;;;;108835;1261;41149;-62
2022/10/19 06:02:25;;;;;;;23.60;11.40;;;;;7.62;97915.00;;;;108962;1266;41206;-62
2022/10/19 06:04:55;;;;;;;26.30;11.90;;;;;7.60;97913.00;;;;108875;1262;41146;-62
2022/10/19 06:07:23;;;;;;;25.90;11.60;;;;;7.62;97910.60;;;;108856;1266;41194;-62
2022/10/19 06:09:53;;;;;;;24.50;9.70;;;;;7.60;97912.00;;;;108954;1270;41161;-62
2022/10/19 06:12:22;;;;;;;19.80;9.60;;;;;7.60;97909.60;;;;108924;1263;41145;-62
2022/10/19 06:14:52;;;;;;;15.80;8.00;;;;;7.70;97909.80;;;;109067;1266;40829;-62
2022/10/19 06:17:20;;;;;;;17.30;8.50;;;;;7.90;97909.60;;;;109012;1262;41146;-61
2022/10/19 06:19:49;;;;;;;17.30;9.50;;;;;8.10;97907.60;;;;108769;1262;41182;-61
2022/10/19 06:22:20;;;;;;;15.00;8.50;;;;;8.30;97905.00;;;;108811;1259;40788;-59
2022/10/19 06:24:50;;;;;;;15.40;7.90;;;;;8.50;97905.20;;;;108833;1271;41898;-60
2022/10/19 06:27:25;;;;;;;15.30;8.10;;;;;8.70;97904.20;;;;108627;1271;41169;-60
2022/10/19 06:29:54;;;;;;;16.40;8.10;;;;;8.96;97909.60;;;;108785;1257;40896;-61
2022/10/19 06:32:22;;;;;;;13.70;6.60;;;;;9.20;97911.00;;;;108877;1270;42364;-60
2022/10/19 06:34:51;;;;;;;13.20;6.40;;;;;9.40;97917.20;;;;108918;1262;41238;-60
2022/10/19 06:37:24;;;;;;;18.40;9.70;;;;;9.62;97910.20;;;;108885;1271;41958;-61
2022/10/19 06:39:52;;;;;;;16.80;8.40;;;;;9.80;97911.80;;;;108958;1268;41670;-62
2022/10/19 06:42:22;;;;;;;18.60;8.70;;;;;9.96;97911.60;;;;108867;1271;41606;-61
2022/10/19 06:44:51;;;;;;;16.80;8.10;;;;;10.10;97913.00;;;;109115;1256;42191;-59
2022/10/19 06:47:20;;;;;;;14.00;7.10;;;;;10.20;97909.20;;;;108789;1271;42402;-60
2022/10/19 06:49:48;;;;;;;15.10;7.50;;;;;10.30;97911.40;;;;108842;1270;41237;-60
2022/10/19 06:52:17;;;;;;;15.60;7.00;;;;;10.30;97908.20;;;;108844;1259;41152;-60
2022/10/19 06:54:46;;;;;;;13.60;5.90;;;;;10.34;97907.60;;;;108686;1262;41161;-60
2022/10/19 06:57:15;;;;;;;12.30;6.00;;;;;10.50;97904.60;;;;108813;1270;41236;-60
2022/10/19 06:59:43;;;;;;;16.20;6.70;;;;;10.70;97904.60;;;;108954;1256;41147;-60
2022/10/19 07:02:14;;;;;;;;;;;;;10.90;97902.60;;;;109120;1266;41921;-60
2022/10/19 07:04:42;;;;;;;21.00;10.20;;;;;11.00;97901.40;;;;108931;1271;41246;-60
2022/10/19 07:07:11;;;;;;;20.00;9.80;;;;;11.08;97904.60;;;;109048;1256;41138;-61
2022/10/19 07:09:40;;;;;;;15.40;8.90;;;;;11.14;97902.80;;;;109026;1270;41141;-60
2022/10/19 07:12:09;;;;;;;19.10;8.60;;;;;11.26;97899.40;;;;108936;1271;41246;-61
2022/10/19 07:14:38;;;;;;;15.30;7.90;;;;;11.40;97898.20;;;;108984;1266;41173;-61
2022/10/19 07:17:09;;;;;;;17.60;8.40;;;;;11.60;97899.40;;;;109057;1256;41469;-60
2022/10/19 07:19:38;;;;;;;17.90;8.40;;;;;11.84;97897.80;;;;108988;1262;41131;-60
2022/10/19 07:22:06;;;;;;;13.40;7.20;;;;;12.00;97898.00;;;;108954;1270;41941;-61
2022/10/19 07:24:35;;;;;;;18.50;9.70;;;;;12.22;97894.40;;;;108957;1271;41141;-59
2022/10/19 07:27:05;;;;;;;20.90;9.60;;;;;12.40;97900.20;;;;108723;1262;340215;-59
2022/10/19 07:29:33;;;;;;;16.10;8.80;;;;;12.54;97890.60;;;;108908;1271;41196;-60
2022/10/19 07:32:02;;;;;;;16.70;9.00;;;;;12.70;97887.00;;;;108965;1271;41237;-60
2022/10/19 07:34:31;;;;;;;15.90;8.70;;;;;12.80;97884.00;;;;108927;1271;42011;-60
2022/10/19 07:37:00;;;;;;;24.50;9.40;;;;;12.90;97880.40;;;;108876;1270;41145;-60
2022/10/19 07:39:29;;;;;;;15.00;8.20;;;;;12.90;97877.80;;;;108636;1259;41162;-60
2022/10/19 07:41:58;;;;;;;16.60;8.80;;;;;13.00;97885.60;;;;108921;1268;41387;-59
2022/10/19 07:44:27;;;;;;;15.70;8.50;;;;;13.10;97876.80;;;;109084;1265;41240;-60
2022/10/19 07:46:56;;;;;;;14.30;7.70;;;;;13.30;97877.20;;;;108980;1267;41930;-59
2022/10/19 07:49:25;;;;;;;21.40;10.90;;;;;13.40;97875.60;;;;108894;1271;41153;-60
2022/10/19 07:51:54;;;;;;;17.90;9.30;;;;;13.50;97868.20;;;;108746;1271;41233;-60
2022/10/19 07:54:23;;;;;;;21.00;10.50;;;;;13.52;97871.40;;;;108837;1266;41224;-61
2022/10/19 07:56:51;;;;;;;19.80;10.60;;;;;13.62;97870.00;;;;108790;1260;42413;-61
2022/10/19 07:59:20;;;;;;;18.50;10.30;;;;;13.70;97867.20;;;;108737;1264;41538;-60
2022/10/19 08:01:50;;;;;;;21.70;11.30;;;;;13.82;97860.40;;;;109011;1271;41435;-58
2022/10/19 08:04:18;;;;;;;20.30;11.10;;;;;14.10;97868.40;;;;108774;1270;42473;-58
2022/10/19 08:07:08;;;;;;;23.00;11.00;;;;;14.30;97866.40;;;;108695;1268;41156;-58
2022/10/19 08:09:37;;;;;;;20.40;11.00;;;;;14.56;97859.60;;;;108663;1271;41149;-58
2022/10/19 08:12:22;;;;;;;27.50;13.60;;;;;14.92;97865.20;;;;108940;1262;41471;-59
2022/10/19 08:14:54;;;;;;;26.80;13.90;;;;;15.06;97870.80;;;;108921;1271;41637;-59
2022/10/19 08:17:22;;;;;;;28.80;13.90;;;;;15.22;97870.00;;;;109016;1263;41602;-59
2022/10/19 08:19:54;;;;;;;23.10;11.70;;;;;15.30;97867.00;;;;109012;1271;41171;-59
2022/10/19 08:22:22;;;;;;;23.30;13.10;;;;;15.68;97861.80;;;;108903;1271;41432;-59
2022/10/19 08:24:51;;;;;;;26.50;14.40;;;;;15.90;97861.80;;;;108884;1270;41624;-59
2022/10/19 08:27:19;;;;;;;26.60;13.00;;;;;16.12;97857.00;;;;108979;1266;41151;-60
2022/10/19 08:29:50;;;;;;;21.00;11.70;;;;;16.40;97848.80;;;;108941;1266;41490;-60
2022/10/19 08:32:19;;;;;;;26.00;15.20;;;;;16.86;97848.40;;;;108979;1269;41219;-59
2022/10/19 08:34:48;;;;;;;22.00;13.30;;;;;16.90;97844.00;;;;108934;1271;41626;-59
2022/10/19 08:37:16;;;;;;;20.80;12.70;;;;;17.08;97844.80;;;;108991;1266;41686;-59
2022/10/19 08:40:00;;;;;;;20.80;11.30;;;;;17.24;97835.00;;;;108879;1271;41150;-59
2022/10/19 08:42:54;;;;;;;26.90;11.70;;;;;17.76;97836.00;;;;108840;1271;41599;-59
2022/10/19 08:45:35;;;;;;;23.50;12.10;;;;;18.54;97829.00;;;;108796;1271;41566;-59
2022/10/19 08:48:35;;;;;;;22.30;11.30;;;;;18.76;97821.80;;;;108843;1271;41248;-60
2022/10/19 08:51:06;;;;;;;26.70;13.40;;;;;18.70;97818.00;;;;108611;1271;42600;-60
2022/10/19 08:53:45;;;;;;;21.80;11.90;;;;;18.60;97821.20;;;;108634;1271;41609;-60
2022/10/19 08:56:22;;;;;;;18.60;10.00;;;;;18.50;97810.40;;;;108866;1271;41280;-59
2022/10/19 08:59:18;;;;;;;24.10;10.90;;;;;18.90;97804.20;;;;108742;1270;41158;-60
2022/10/19 09:01:49;;;;;;;17.20;9.30;;;;;18.88;97797.60;;;;108836;1271;43270;-60
2022/10/19 09:04:24;;;;;;;19.00;10.40;;;;;19.38;97799.00;;;;108578;1270;41149;-60
2022/10/19 09:06:59;;;;;;;16.70;9.30;;;;;19.90;97787.40;;;;108540;1263;41480;-60
2022/10/19 09:09:29;;;;;;;20.20;10.90;;;;;20.56;97793.00;;;;108601;1271;41183;-60
2022/10/19 09:12:05;;;;;;;16.70;8.80;;;;;21.30;97792.60;;;;108565;1271;41629;-59
2022/10/19 09:14:57;;;;;;;17.10;8.70;;;;;22.20;97787.20;;;;108706;1271;41211;-60
2022/10/19 09:17:25;;;;;;;15.80;8.60;;;;;23.16;97791.40;;;;108837;1271;42469;-59
2022/10/19 09:19:54;;;;;;;19.00;10.60;;;;;23.80;97796.00;;;;108694;1271;41156;-60
2022/10/19 09:22:28;;;;;;;18.90;8.90;;;;;23.38;97798.40;;;;108816;1273;41145;-60
2022/10/19 09:25:05;;;;;;;16.70;9.30;;;;;22.28;97803.20;;;;108605;1270;41317;-60
2022/10/19 09:27:40;;;;;;;18.80;9.90;;;;;21.68;97807.60;;;;108595;1271;41954;-59
2022/10/19 09:30:29;;;;;;;15.90;8.60;;;;;21.04;97808.40;;;;108899;1271;41202;-59
2022/10/19 09:32:59;;;;;;;16.70;8.60;;;;;20.50;97815.00;;;;108760;1272;41937;-59
2022/10/19 09:35:36;;;;;;;19.60;10.40;;;;;20.28;97813.60;;;;108831;1271;41159;-60
2022/10/19 09:38:06;;;;;;;21.70;11.90;;;;;20.00;97815.00;;;;108871;1270;41501;-60
2022/10/19 09:40:35;;;;;;;24.60;12.00;;;;;19.62;97817.40;;;;108670;1271;41634;-59
2022/10/19 09:43:20;;;;;;;26.90;12.80;;;;;19.10;97815.00;;;;108902;1271;41630;-59
2022/10/19 09:45:52;;;;;;;21.50;10.80;;;;;18.50;97808.80;;;;108955;1271;41140;-60
2022/10/19 09:48:28;;;;;;;21.30;11.30;;;;;17.94;97810.60;;;;108922;1270;41235;-59
2022/10/19 09:50:59;;;;;;;21.70;11.20;;;;;17.60;97802.40;;;;108872;1266;41149;-59
2022/10/19 09:53:29;;;;;;;19.90;10.60;;;;;17.26;97801.80;;;;108920;1267;41181;-59
2022/10/19 09:56:03;;;;;;;19.80;10.70;;;;;16.72;97804.80;;;;108910;1270;42942;-59
2022/10/19 09:58:32;;;;;;;16.70;9.10;;;;;16.64;97804.40;;;;108923;1256;41804;-59
2022/10/19 10:01:02;;;;;;;19.90;11.10;;;;;16.50;97805.80;;;;108903;1270;41553;-59
2022/10/19 10:03:38;;;;;;;22.60;10.50;;;;;16.40;97803.60;;;;108882;1271;41479;-59
2022/10/19 10:06:12;;;;;;;19.40;10.10;;;;;16.30;97805.40;;;;108944;1271;41220;-59
2022/10/19 10:08:49;;;;;;;18.00;9.70;;;;;16.30;97801.60;;;;108899;1271;41161;-59
2022/10/19 10:11:28;;;;;;;20.20;9.60;;;;;16.20;97799.80;;;;108936;1271;42108;-59
2022/10/19 10:13:59;;;;;;;18.70;9.20;;;;;16.10;97799.60;;;;108783;1252;42113;-59
2022/10/19 10:16:31;;;;;;;18.20;9.80;;;;;15.96;97802.20;;;;108880;1271;41459;-59
2022/10/19 10:19:12;;;;;;;19.90;10.70;;;;;15.94;97795.20;;;;108810;1271;42032;-59
2022/10/19 10:21:49;;;;;;;13.10;7.40;;;;;16.10;97798.40;;;;108566;1265;41342;-59
2022/10/19 10:24:20;;;;;;;17.60;8.80;;;;;16.40;97790.00;;;;108850;1271;41240;-59
2022/10/19 10:27:03;;;;;;;14.00;7.30;;;;;16.56;97789.20;;;;108930;1271;42403;-59
2022/10/19 10:29:35;;;;;;;21.10;8.90;;;;;16.90;97789.00;;;;108933;1271;41144;-58
2022/10/19 10:32:08;;;;;;;19.30;8.60;;;;;17.10;97783.60;;;;108969;1271;41135;-58
2022/10/19 10:34:43;;;;;;;17.80;8.40;;;;;17.20;97784.60;;;;108920;1266;41487;-58
2022/10/19 10:37:39;;;;;;;13.30;6.10;;;;;17.30;97785.00;;;;108885;1271;41225;-59
2022/10/19 10:40:29;;;;;;;12.40;6.10;;;;;17.52;97782.20;;;;108860;1271;41231;-59
2022/10/19 10:43:05;;;;;;;11.40;5.70;;;;;17.70;97781.00;;;;108904;1271;41852;-58
2022/10/19 10:46:07;;;;;;;13.20;6.70;;;;;17.90;97782.40;;;;108934;1271;41150;-58
2022/10/19 10:48:41;;;;;;;15.00;7.10;;;;;17.90;97777.40;;;;108948;1271;41645;-58
2022/10/19 10:51:44;;;;;;;12.50;7.00;;;;;17.80;97777.40;;;;108878;1271;41250;-58
2022/10/19 10:54:25;;;;;;;13.10;6.90;;;;;17.80;97777.40;;;;108905;1271;41232;-61
2022/10/19 10:56:59;;;;;;;14.20;6.20;;;;;17.70;97777.60;;;;108881;1271;41170;-60
2022/10/19 10:59:56;;;;;;;13.50;7.30;;;;;17.70;97773.20;;;;108793;1271;41608;-59
2022/10/19 11:02:46;;;;;;;14.70;8.00;;;;;17.60;97768.40;;;;108759;1271;41615;-57
2022/10/19 11:05:29;;;;;;;13.00;6.50;;;;;17.60;97757.80;;;;108611;1271;41351;-59
2022/10/19 11:08:10;;;;;;;11.90;6.30;;;;;17.50;97754.00;;;;108850;1271;41150;-59
2022/10/19 11:10:54;;;;;;;12.10;6.40;;;;;17.60;97761.00;;;;108928;1271;41186;-59
2022/10/19 11:13:34;;;;;;;12.10;6.10;;;;;17.60;97765.20;;;;108785;1271;43100;-59
2022/10/19 11:16:12;;;;;;;11.90;6.10;;;;;17.68;97752.40;;;;108890;1271;41620;-59
2022/10/19 11:18:44;;;;;;;13.20;7.40;;;;;17.70;97751.60;;;;108920;1271;41162;-59
2022/10/19 11:21:28;;;;;;;14.60;6.30;;;;;17.72;97750.20;;;;108702;1271;41184;-59
2022/10/19 11:24:26;;;;;;;12.50;6.20;;;;;17.80;97748.20;;;;108817;1260;41144;-59
2022/10/19 11:27:04;;;;;;;12.00;5.90;;;;;17.80;97745.40;;;;108426;1271;41666;-59
2022/10/19 11:29:45;;;;;;;15.70;7.20;;;;;17.88;97742.40;;;;108598;1271;41167;-59
2022/10/19 11:32:50;;;;;;;16.70;7.40;;;;;17.90;97744.00;;;;108575;1271;41606;-59
2022/10/19 11:35:53;;;;;;;14.10;6.50;;;;;17.80;97738.20;;;;108602;1271;41151;-59
2022/10/19 11:38:39;;;;;;;18.70;7.70;;;;;17.78;97739.40;;;;108642;1271;42577;-59
2022/10/19 11:41:28;;;;;;;12.60;6.20;;;;;17.70;97741.00;;;;108828;1271;41148;-59
2022/10/19 11:44:09;;;;;;;12.10;6.40;;;;;17.78;97739.40;;;;108879;1271;41218;-59
2022/10/19 11:46:40;;;;;;;13.00;6.50;;;;;17.80;97739.60;;;;108843;1270;41161;-59
2022/10/19 11:49:15;;;;;;;11.80;5.80;;;;;17.80;97729.80;;;;108647;1268;41159;-59
2022/10/19 11:52:03;;;;;;;10.70;5.60;;;;;17.90;97730.60;;;;108718;1271;41255;-59
2022/10/19 11:54:58;;;;;;;15.60;7.70;;;;;18.00;97718.60;;;;108906;1271;41172;-59
2022/10/19 11:57:31;;;;;;;12.30;6.10;;;;;18.00;97715.20;;;;108712;1271;42021;-59
2022/10/19 12:00:14;;;;;;;13.50;6.80;;;;;18.08;97711.80;;;;108779;1270;41633;-59
2022/10/19 12:03:17;;;;;;;12.80;6.60;;;;;18.30;97708.80;;;;108849;1271;41178;-59
2022/10/19 12:06:00;;;;;;;12.40;6.10;;;;;18.68;97705.00;;;;108908;1271;41614;-58
2022/10/19 12:08:42;;;;;;;13.20;5.60;;;;;19.00;97700.00;;;;108691;1271;41147;-58
2022/10/19 12:11:37;;;;;;;12.10;5.50;;;;;19.38;97692.00;;;;108599;1271;41230;-58
2022/10/19 12:14:21;;;;;;;10.00;4.50;;;;;19.60;97687.00;;;;108586;1271;42166;-58
2022/10/19 12:16:53;;;;;;;12.40;5.50;;;;;19.76;97681.40;;;;108706;1270;41616;-59
2022/10/19 12:19:26;;;;;;;9.30;4.50;;;;;19.76;97677.80;;;;108763;1271;42526;-59
2022/10/19 12:21:59;;;;;;;11.00;4.60;;;;;19.80;97674.40;;;;108533;1271;41245;-59
2022/10/19 12:24:29;;;;;;;11.20;4.50;;;;;19.90;97673.00;;;;108621;1271;41191;-59
2022/10/19 12:26:58;;;;;;;8.90;4.30;;;;;20.00;97674.00;;;;108688;1271;41172;-60
2022/10/19 12:29:32;;;;;;;11.60;5.30;;;;;19.90;97667.00;;;;108783;1271;41148;-60
2022/10/19 12:32:02;;;;;;;10.30;4.90;;;;;19.88;97666.60;;;;108936;1271;41175;-60
2022/10/19 12:34:31;;;;;;;9.40;4.20;;;;;19.80;97670.00;;;;108914;1269;42499;-60
2022/10/19 12:37:34;;;;;;;13.30;6.00;;;;;19.80;97666.60;;;;108873;1271;41200;-60